Flight Track Log - Related Links

Times and Time Zones

All times are in EDT time to prevent confusion due to time zone crossing. See the ASQ5678 flight status page for this flight to view local times or setup timezone preferences in your user account.

Time Position Orientation Groundspeed Altitude Reporting Facility
EDT Latitude Longitude Course Direction KTS MPH feet Rate Location/Type
Tue 04:35:48 PM 40.6333 -74.2167 270° West 212 244 2,900  Level New York TRACON
Tue 04:36:48 PM 40.5833 -74.2833 225° Southwest 259 298 5,100 2,333 Climbing New York TRACON
Tue 04:37:00 PM 40.6834 -74.5641 270° West  Level FlightAware Approximate
Tue 04:37:54 PM 40.5833 -74.3833 270° West 283 326 7,800  Level New York TRACON
Tue 04:38:00 PM 40.6833 -74.6965 270° West  Level FlightAware Approximate
Tue 04:38:54 PM 40.5833 -74.4833 270° West 281 323 10,300  Level New York TRACON
Tue 04:39:00 PM 40.6834 -74.8290 270° West  Level FlightAware Approximate
Tue 04:39:48 PM 40.5833 -74.5833 270° West 328 377 11,100  Level New York TRACON
Tue 04:40:00 PM 40.6833 -74.9614 270° West  Level FlightAware Approximate
Tue 04:41:00 PM 40.6667 -75.0915 270° West  Level FlightAware Approximate
Tue 04:41:53 PM 40.6375 -74.8350 286° West 377 434 12,800  Level New York Center
Tue 04:42:53 PM 40.6989 -74.9261 312° West 350 403 15,000 1,587 Climbing New York Center
Tue 04:43:54 PM 40.6922 -75.0572 266° West 319 367 16,000 1,059 Climbing New York Center
Tue 04:44:52 PM 40.6397 -75.1769 240° Southwest 346 398 17,100 1,322 Climbing New York Center
Tue 04:45:52 PM 40.5922 -75.2806 239° Southwest 372 428 18,600 1,537 Climbing New York Center
Tue 04:46:53 PM 40.5331 -75.4078 239° Southwest 378 435 20,200 1,488 Climbing New York Center
Tue 04:47:53 PM 40.4803 -75.5269 240° Southwest 373 429 21,600 1,438 Climbing New York Center
Tue 04:48:54 PM 40.4236 -75.6431 237° Southwest 373 429 23,100 1,513 Climbing New York Center
Tue 04:49:52 PM 40.3706 -75.7644 240° Southwest 373 429 24,600 1,475 Climbing New York Center
Tue 04:50:52 PM 40.3156 -75.8803 238° Southwest 373 429 26,000 1,341 Climbing New York Center
Tue 04:52:51 PM 40.2083 -76.1075 238° Southwest 386 444 28,600 1,288 Climbing Washington Center
Tue 04:53:49 PM 40.1536 -76.2239 238° Southwest 381 438 29,800 1,160 Climbing Washington Center
Tue 04:54:50 PM 40.0989 -76.3453 240° Southwest 388 447 30,900 1,091 Climbing Washington Center
Tue 04:55:50 PM 40.0417 -76.4667 238° Southwest 388 447 32,000 1,140 Climbing Washington Center
Tue 04:56:51 PM 39.9867 -76.5769 237° Southwest 397 457 33,200 1,563 Climbing Washington Center
Tue 04:57:49 PM 39.9336 -76.6956 240° Southwest 403 464 35,100 1,412 Climbing Washington Center
Tue 04:58:50 PM 39.8764 -76.8081 236° Southwest 393 452 36,000 446 Climbing Washington Center
Tue 04:59:50 PM 39.8208 -76.9289 239° Southwest 388 447 36,000  Level Washington Center
Tue 05:00:51 PM 39.7611 -77.0544 238° Southwest 395 455 36,000  Level Washington Center
Tue 05:01:49 PM 39.6989 -77.1881 239° Southwest 416 479 36,000  Level Washington Center
Tue 05:02:49 PM 39.6367 -77.3242 239° Southwest 431 496 36,000  Level Washington Center
Tue 05:03:50 PM 39.5722 -77.4572 238° Southwest 439 505 36,000  Level Washington Center
Tue 05:04:50 PM 39.5075 -77.5953 239° Southwest 444 511 36,000  Level Washington Center
Tue 05:05:51 PM 39.4569 -77.7364 245° Southwest 438 504 36,000  Level Washington Center
Tue 05:06:51 PM 39.4231 -77.8833 253° West 433 498 36,000  Level Washington Center
Tue 05:07:49 PM 39.3850 -78.0244 251° West 427 491 36,000  Level Washington Center
Tue 05:08:49 PM 39.3486 -78.1681 252° West 422 486 36,000  Level Washington Center
Tue 05:09:50 PM 39.3122 -78.3089 252° West 422 486 36,000  Level Washington Center
Tue 05:10:51 PM 39.2756 -78.4469 251° West 422 486 36,000  Level Washington Center
Tue 05:11:49 PM 39.2389 -78.5903 252° West 422 486 36,000  Level Washington Center
Tue 05:12:50 PM 39.1997 -78.7281 250° West 422 486 36,000  Level Washington Center
Tue 05:13:51 PM 39.1628 -78.8708 252° West 422 486 36,000  Level Washington Center
Tue 05:14:49 PM 39.1253 -79.0164 252° West 422 486 36,000  Level Washington Center
Tue 05:15:49 PM 39.0856 -79.1589 250° West 422 486 36,000  Level Washington Center
Tue 05:16:50 PM 39.0478 -79.3069 252° West 427 491 36,000  Level Washington Center
Tue 05:17:51 PM 39.0100 -79.4492 251° West 427 491 36,000 -202 Level Washington Center
Tue 05:18:49 PM 38.9675 -79.6019 250° West 437 503 35,600 -504 Descending Washington Center
Tue 05:19:50 PM 38.9269 -79.7517 251° West 448 516 35,000 -295 Descending Washington Center
Tue 05:20:51 PM 38.8864 -79.8933 250° West 443 510 35,000  Level Washington Center
Tue 05:21:49 PM 38.8433 -80.0483 250° West 426 490 35,000  Level Washington Center
Tue 05:22:45 PM 38.8181 -80.1656 255° West 424 488 35,000  Level Indianapolis Center
Tue 05:23:47 PM 38.8131 -80.3178 268° West 428 493 35,000  Level Indianapolis Center
Tue 05:24:49 PM 38.8103 -80.4719 269° West 433 498 35,000  Level Indianapolis Center
Tue 05:25:51 PM 38.8047 -80.6267 267° West 435 501 35,000 -145 Level Indianapolis Center
Tue 05:26:53 PM 38.8000 -80.8117 268° West 434 499 34,700 -629 Descending Indianapolis Center
Tue 05:27:55 PM 38.7947 -80.9678 268° West 438 504 33,700 -968 Descending Indianapolis Center
Tue 05:28:57 PM 38.7894 -81.1242 268° West 439 505 32,700 -1,016 Descending Indianapolis Center
Tue 05:29:59 PM 38.7836 -81.2822 267° West 445 512 31,600 -823 Descending Indianapolis Center
Tue 05:31:01 PM 38.7783 -81.4392 268° West 448 516 31,000 -290 Descending Indianapolis Center
Tue 05:32:03 PM 38.7481 -81.6069 257° West 449 517 31,000  Level Indianapolis Center
Tue 05:33:05 PM 38.7164 -81.7675 256° West 444 511 31,000  Level Indianapolis Center
Tue 05:34:07 PM 38.6867 -81.9161 256° West 436 502 31,000  Level Indianapolis Center
Tue 05:35:09 PM 38.6569 -82.0639 256° West 430 495 31,000 -97 Level Indianapolis Center
Tue 05:36:11 PM 38.6261 -82.2156 255° West 440 506 30,800 -532 Descending Indianapolis Center
Tue 05:37:13 PM 38.5897 -82.3936 255° West 430 495 29,900 -1,065 Descending Indianapolis Center
Tue 05:38:15 PM 38.5636 -82.5200 255° West 408 470 28,600 -1,597 Descending Indianapolis Center
Tue 05:39:17 PM 38.5294 -82.6869 255° West 415 478 26,600 -1,935 Descending Indianapolis Center
Tue 05:40:19 PM 38.4983 -82.8358 255° West 430 495 24,600 -1,728 Descending Indianapolis Center
Tue 05:41:22 PM 38.4664 -82.9878 255° West 439 505 23,000 -1,536 Descending Indianapolis Center
Tue 05:42:24 PM 38.4458 -83.1267 259° West 404 465 21,400 -1,742 Descending Indianapolis Center
Tue 05:43:26 PM 38.4717 -83.2675 283° West 408 470 19,400 -2,081 Descending Indianapolis Center
Tue 05:44:28 PM 38.5075 -83.4306 286° West 409 471 17,100 -2,177 Descending Indianapolis Center
Tue 05:45:30 PM 38.5358 -83.5631 285° West 390 449 14,900 -2,129 Descending Indianapolis Center
Tue 05:46:32 PM 38.5653 -83.6922 286° West 381 438 12,700 -2,177 Descending Indianapolis Center
Tue 05:47:34 PM 38.5897 -83.8172 284° West 367 422 10,400 -1,306 Descending Indianapolis Center
Tue 05:48:36 PM 38.6217 -83.9394 289° West 364 419 10,000 -194 Descending Indianapolis Center
Tue 05:49:38 PM 38.6797 -84.0492 304° West 364 419 10,000  Level Indianapolis Center
Tue 05:50:40 PM 38.7453 -84.1758 304° West 362 417 10,000  Level Indianapolis Center
Tue 05:51:42 PM 38.7994 -84.2822 303° West 355 409 10,000  Level Indianapolis Center
Tue 05:52:44 PM 38.8553 -84.3892 304° West 356 410 10,000  Level Indianapolis Center
Tue 05:53:29 PM 38.9000 -84.4667 307° West 338 389 10,000 -457 Level Cincinnati TRACON
Tue 05:54:29 PM 38.9500 -84.5333 314° West 286 329 9,200 -1,100 Descending Cincinnati TRACON
Tue 05:55:29 PM 39.0333 -84.5333 360° North 272 313 7,800 -1,400 Descending Cincinnati TRACON
Tue 05:56:29 PM 39.1000 -84.5333 360° North 252 290 6,400 -1,350 Descending Cincinnati TRACON
Tue 05:57:29 PM 39.1667 -84.5500 349° North 244 281 5,100 -988 Descending Cincinnati TRACON
Tue 05:57:54 PM 39.1831 -84.5686 319° Northwest 265 305 5,000 -966 Descending Indianapolis Center
Tue 05:58:56 PM 39.1686 -84.6392 255° West 230 265 3,700 -1,258 Descending Indianapolis Center

Login

Don't have an account? Register now (free) for customized features, flight alerts, and more!